Time;durP1;ratioP1;P1;durP2;ratioP2;P2;SDS_P1;SDS_P2;PMS_P1;PMS_P2;Temp;Humidity;BMP_temperature;BMP_pressure;BME280_temperature;BME280_humidity;BME280_pressure;Samples;Min_cycle;Max_cycle;Signal;HPM_P1;HPM_P2
2022/11/03 00:02:13;;;;;;;4.85;3.95;;;10.20;99.90;;;;;;6141799;29;20291;-67
2022/11/03 00:08:42;;;;;;;13.60;4.90;;;10.20;99.90;;;;;;6142287;29;20275;-68
2022/11/03 00:11:50;;;;;;;5.70;3.90;;;10.20;99.90;;;;;;6123733;29;20288;-67
2022/11/03 00:14:55;;;;;;;4.07;3.72;;;10.10;99.90;;;;;;6118592;29;20277;-67
2022/11/03 00:18:00;;;;;;;5.40;4.03;;;10.10;99.90;;;;;;6118305;29;20272;-67
2022/11/03 00:21:06;;;;;;;4.57;3.60;;;10.00;99.90;;;;;;6118002;29;20303;-67
2022/11/03 00:24:12;;;;;;;4.80;3.50;;;10.00;99.90;;;;;;6118181;29;20272;-67
2022/11/03 00:27:19;;;;;;;5.07;4.35;;;10.00;99.90;;;;;;6117474;29;20481;-66
2022/11/03 00:30:23;;;;;;;4.10;3.83;;;10.00;99.90;;;;;;6117967;29;20268;-66
2022/11/03 00:33:32;;;;;;;4.25;3.83;;;9.90;99.90;;;;;;6117754;29;20455;-66
2022/11/03 00:36:40;;;;;;;4.45;4.00;;;9.90;99.90;;;;;;6117745;29;20272;-66
2022/11/03 00:39:45;;;;;;;4.05;3.63;;;9.90;99.90;;;;;;6117535;29;20276;-67
2022/11/03 00:42:51;;;;;;;6.10;3.72;;;9.90;99.90;;;;;;6117909;29;20292;-67
2022/11/03 00:45:57;;;;;;;7.43;3.90;;;9.90;99.90;;;;;;6117389;29;20283;-67
2022/11/03 00:49:02;;;;;;;7.65;3.70;;;9.80;99.90;;;;;;6117640;29;20267;-67
2022/11/03 00:52:07;;;;;;;6.90;3.67;;;9.80;99.90;;;;;;6117644;29;20276;-67
2022/11/03 00:55:12;;;;;;;5.68;3.67;;;9.70;99.90;;;;;;6117551;29;20268;-67
2022/11/03 00:58:18;;;;;;;6.32;3.95;;;9.70;99.90;;;;;;6117921;29;20272;-66
2022/11/03 01:01:25;;;;;;;6.35;3.55;;;9.70;99.90;;;;;;6117469;29;20288;-67
2022/11/03 01:07:53;;;;;;;4.10;3.67;;;9.70;99.90;;;;;;6117577;29;20276;-67
2022/11/03 01:14:33;;;;;;;7.10;3.78;;;9.60;99.90;;;;;;6140791;29;20271;-66
2022/11/03 01:17:40;;;;;;;4.80;3.35;;;9.60;99.90;;;;;;6140836;29;20275;-67
2022/11/03 01:20:45;;;;;;;8.75;3.40;;;9.60;99.90;;;;;;6140229;29;20292;-67
2022/11/03 01:23:50;;;;;;;6.93;3.33;;;9.60;99.90;;;;;;6140215;29;20295;-67
2022/11/03 01:26:55;;;;;;;3.90;3.63;;;9.60;99.90;;;;;;6140603;29;20471;-67
2022/11/03 01:30:01;;;;;;;5.18;3.17;;;9.60;99.90;;;;;;6140064;29;20271;-66
2022/11/03 01:33:06;;;;;;;4.07;3.58;;;9.50;99.90;;;;;;6140325;29;20275;-66
2022/11/03 01:36:13;;;;;;;3.88;3.60;;;9.50;99.90;;;;;;6140268;29;20270;-67
2022/11/03 01:39:19;;;;;;;5.13;3.20;;;9.50;99.90;;;;;;6140271;29;20267;-67
2022/11/03 01:42:24;;;;;;;3.65;3.33;;;9.50;99.90;;;;;;6140359;29;20294;-67
2022/11/03 01:45:30;;;;;;;3.65;3.30;;;9.40;99.90;;;;;;6140263;29;20275;-67
2022/11/03 01:48:38;;;;;;;3.58;3.35;;;9.40;99.90;;;;;;6139887;29;20392;-67
2022/11/03 01:51:45;;;;;;;3.58;3.28;;;9.40;99.90;;;;;;6139790;29;20275;-68
2022/11/03 01:54:56;;;;;;;6.25;3.60;;;9.40;99.90;;;;;;6139796;29;20291;-67
2022/11/03 01:58:05;;;;;;;4.00;3.28;;;9.30;99.90;;;;;;6140156;29;20575;-66
2022/11/03 02:05:08;;;;;;;3.58;3.10;;;9.30;99.90;;;;;;7017147;23;20492;-67
2022/11/03 02:08:17;;;;;;;3.38;3.05;;;9.30;99.90;;;;;;6146800;29;20267;-67
2022/11/03 02:14:51;;;;;;;3.55;3.33;;;9.20;99.90;;;;;;6146318;29;20267;-67
2022/11/03 02:17:56;;;;;;;3.45;2.88;;;9.20;99.90;;;;;;6163798;29;20266;-67
2022/11/03 02:21:15;;;;;;;5.32;3.10;;;9.20;99.90;;;;;;6163941;29;20267;-67
2022/11/03 02:24:27;;;;;;;4.03;3.08;;;9.10;99.90;;;;;;6142447;29;20287;-66
2022/11/03 02:27:33;;;;;;;3.38;3.00;;;9.10;99.90;;;;;;6139585;29;20547;-67
2022/11/03 02:30:44;;;;;;;4.63;3.25;;;9.10;99.90;;;;;;6140061;29;20271;-67
2022/11/03 02:33:55;;;;;;;4.53;2.92;;;9.10;99.90;;;;;;6139563;29;20426;-66
2022/11/03 02:37:04;;;;;;;3.03;2.80;;;9.10;99.90;;;;;;6139578;29;20271;-67
2022/11/03 02:40:15;;;;;;;3.60;3.30;;;9.10;99.90;;;;;;6149174;29;20288;-67
2022/11/03 02:43:23;;;;;;;3.88;3.05;;;9.00;99.90;;;;;;6163389;29;20287;-66
2022/11/03 02:46:28;;;;;;;5.70;3.25;;;9.00;99.90;;;;;;6163326;29;20279;-66
2022/11/03 02:49:39;;;;;;;5.78;2.95;;;9.00;99.90;;;;;;6165636;28;20287;-67
2022/11/03 02:52:46;;;;;;;3.47;3.17;;;9.00;99.90;;;;;;6167737;29;20270;-67
2022/11/03 02:55:58;;;;;;;3.22;3.08;;;9.00;99.90;;;;;;6167449;29;20270;-67
2022/11/03 02:59:09;;;;;;;4.53;2.67;;;9.00;99.90;;;;;;6167842;29;20270;-68
2022/11/03 03:02:18;;;;;;;3.70;3.25;;;8.90;99.90;;;;;;6167333;29;20274;-67
2022/11/03 03:05:27;;;;;;;5.97;3.15;;;8.90;99.90;;;;;;6166803;29;20298;-67
2022/11/03 03:08:32;;;;;;;6.72;3.22;;;8.80;99.90;;;;;;6166872;29;20271;-67
2022/11/03 03:11:42;;;;;;;4.78;3.20;;;8.80;99.90;;;;;;6166926;29;20384;-67
2022/11/03 03:14:49;;;;;;;11.25;3.08;;;8.80;99.90;;;;;;6152375;29;20268;-67
2022/11/03 03:18:00;;;;;;;3.38;2.97;;;8.80;99.90;;;;;;6143135;29;20276;-67
2022/11/03 03:21:13;;;;;;;3.05;2.85;;;8.80;99.90;;;;;;6143247;29;20275;-66
2022/11/03 03:24:27;;;;;;;9.35;3.03;;;8.70;99.90;;;;;;6143474;29;20291;-66
2022/11/03 03:27:34;;;;;;;4.28;3.13;;;8.70;99.90;;;;;;6143474;29;20330;-67
2022/11/03 03:30:41;;;;;;;5.25;3.33;;;8.70;99.90;;;;;;6142726;29;20437;-66
2022/11/03 03:33:49;;;;;;;3.45;3.15;;;8.70;99.90;;;;;;6143173;29;20284;-66
2022/11/03 03:37:00;;;;;;;3.33;3.13;;;8.70;99.90;;;;;;6142881;29;20278;-65
2022/11/03 03:40:10;;;;;;;3.33;3.10;;;8.60;99.90;;;;;;6142239;29;20271;-67
2022/11/03 03:43:15;;;;;;;7.50;3.58;;;8.60;99.90;;;;;;6142299;29;20472;-66
2022/11/03 03:46:23;;;;;;;9.45;3.40;;;8.70;99.90;;;;;;6142279;29;20271;-66
2022/11/03 03:49:28;;;;;;;5.22;3.05;;;8.60;99.90;;;;;;6142543;29;20283;-66
2022/11/03 03:52:34;;;;;;;3.55;3.10;;;8.80;99.90;;;;;;6142345;29;20274;-67
2022/11/03 03:55:43;;;;;;;7.55;3.28;;;8.80;99.90;;;;;;6142352;29;20284;-67
2022/11/03 03:58:47;;;;;;;3.30;3.00;;;8.80;99.90;;;;;;6142693;29;20271;-67
2022/11/03 04:01:54;;;;;;;3.83;3.08;;;8.90;99.90;;;;;;6140701;29;20271;-66
2022/11/03 04:04:59;;;;;;;4.10;2.78;;;8.90;99.90;;;;;;6124789;29;20307;-66
2022/11/03 04:08:04;;;;;;;4.20;3.17;;;8.80;99.90;;;;;;6142185;29;20271;-67
2022/11/03 04:24:40;;;;;;;3.70;2.83;;;8.80;99.90;;;;;;6165613;29;20298;-67
2022/11/03 04:27:44;;;;;;;3.38;2.60;;;8.70;99.90;;;;;;6165135;29;20271;-66
2022/11/03 04:30:49;;;;;;;4.38;2.95;;;8.70;99.90;;;;;;6165790;29;20360;-66
2022/11/03 04:34:05;;;;;;;2.92;2.70;;;8.70;99.90;;;;;;6165713;29;20274;-67
2022/11/03 04:37:13;;;;;;;3.13;2.72;;;8.70;99.90;;;;;;6165415;29;20270;-67
2022/11/03 04:40:18;;;;;;;3.35;2.60;;;8.70;99.90;;;;;;6165373;29;20267;-67
2022/11/03 04:43:29;;;;;;;4.32;2.85;;;8.80;99.90;;;;;;6165371;29;20605;-67
2022/11/03 04:46:34;;;;;;;4.45;2.72;;;8.70;99.90;;;;;;6165011;29;20272;-67
2022/11/03 04:49:41;;;;;;;2.70;2.47;;;8.70;99.90;;;;;;6165108;29;20275;-66
2022/11/03 04:52:47;;;;;;;6.28;2.50;;;8.70;99.90;;;;;;6165116;29;20424;-66
2022/11/03 04:55:53;;;;;;;7.22;2.67;;;8.70;99.90;;;;;;6164428;29;20460;-66
2022/11/03 04:58:59;;;;;;;2.45;2.35;;;8.60;99.90;;;;;;6165043;29;20266;-66
2022/11/03 05:02:08;;;;;;;6.22;2.40;;;8.60;99.90;;;;;;6164722;29;20589;-67
2022/11/03 05:05:21;;;;;;;5.28;2.90;;;8.60;99.90;;;;;;6163851;29;20314;-67
2022/11/03 05:08:25;;;;;;;3.20;2.78;;;8.60;99.90;;;;;;6164760;29;20275;-66
2022/11/03 05:11:34;;;;;;;2.10;2.00;;;8.60;99.90;;;;;;6164459;28;20514;-67
2022/11/03 05:14:39;;;;;;;4.65;2.65;;;8.60;99.90;;;;;;6150777;29;20275;-67
2022/11/03 05:17:44;;;;;;;3.47;2.50;;;8.50;99.90;;;;;;6140415;29;20267;-67
2022/11/03 05:20:54;;;;;;;4.43;2.85;;;8.50;99.90;;;;;;6140969;29;20271;-67
2022/11/03 05:24:04;;;;;;;5.45;2.30;;;8.40;99.90;;;;;;6140473;29;20290;-67
2022/11/03 05:27:13;;;;;;;6.10;2.55;;;8.50;99.90;;;;;;6140776;29;20563;-68
2022/11/03 05:30:18;;;;;;;4.82;2.28;;;8.50;99.90;;;;;;6140394;29;20333;-67
2022/11/03 05:33:28;;;;;;;3.45;2.47;;;8.40;99.90;;;;;;6110386;29;20280;-67
2022/11/03 05:36:35;;;;;;;4.95;2.65;;;8.40;99.90;;;;;;6117146;29;20275;-68
2022/11/03 05:39:43;;;;;;;6.45;2.38;;;8.40;99.90;;;;;;6116899;29;20276;-66
2022/11/03 05:42:51;;;;;;;2.97;2.33;;;8.30;99.90;;;;;;6116740;29;20271;-67
2022/11/03 05:45:58;;;;;;;3.85;2.20;;;8.30;99.90;;;;;;6116625;29;20292;-67
2022/11/03 05:49:05;;;;;;;2.63;2.30;;;8.20;99.90;;;;;;6116355;29;20268;-68
2022/11/03 05:52:17;;;;;;;2.47;2.22;;;8.20;99.90;;;;;;6116657;29;20275;-67
2022/11/03 05:55:27;;;;;;;5.40;2.60;;;8.20;99.90;;;;;;6116696;29;20277;-67
2022/11/03 05:58:36;;;;;;;4.57;2.72;;;8.20;99.90;;;;;;6116310;29;20276;-67
2022/11/03 06:01:41;;;;;;;7.25;2.60;;;8.20;99.90;;;;;;6116132;29;20452;-66
2022/11/03 06:04:46;;;;;;;3.42;2.53;;;8.20;99.90;;;;;;6116158;29;20327;-66
2022/11/03 06:07:55;;;;;;;2.33;2.22;;;8.20;99.90;;;;;;6116553;29;20280;-66
2022/11/03 06:11:00;;;;;;;3.53;2.58;;;8.10;99.90;;;;;;6116345;29;20268;-67
2022/11/03 06:14:16;;;;;;;6.25;2.58;;;8.10;99.90;;;;;;6125941;29;20263;-67
2022/11/03 06:17:28;;;;;;;5.57;2.33;;;8.10;99.90;;;;;;6139352;29;20275;-67
2022/11/03 06:20:33;;;;;;;7.28;2.58;;;8.00;99.90;;;;;;6140069;29;20267;-67
2022/11/03 06:23:39;;;;;;;2.35;2.15;;;8.10;99.90;;;;;;6141082;29;20522;-67
2022/11/03 06:26:45;;;;;;;2.80;2.25;;;8.10;99.90;;;;;;6144231;29;20291;-67
2022/11/03 06:29:53;;;;;;;2.83;2.20;;;8.10;99.90;;;;;;6144531;29;20657;-66
2022/11/03 06:33:00;;;;;;;3.33;2.67;;;8.10;99.90;;;;;;6144648;29;20570;-67
2022/11/03 06:36:15;;;;;;;3.10;2.40;;;8.00;99.90;;;;;;6144116;29;20466;-67
2022/11/03 06:39:23;;;;;;;2.83;2.60;;;8.10;99.90;;;;;;6143963;29;20453;-67
2022/11/03 06:42:31;;;;;;;3.33;2.55;;;8.10;99.90;;;;;;6144449;29;20275;-67
2022/11/03 06:45:36;;;;;;;4.05;2.60;;;8.00;99.90;;;;;;6143932;29;20286;-67
2022/11/03 06:48:41;;;;;;;6.05;2.70;;;8.00;99.90;;;;;;6143702;29;20551;-67
2022/11/03 06:51:46;;;;;;;2.75;2.40;;;8.00;99.90;;;;;;6144164;29;20272;-67
2022/11/03 06:55:10;;;;;;;2.95;2.75;;;8.00;99.90;;;;;;6143817;29;20280;-67
2022/11/03 06:58:29;;;;;;;2.30;2.15;;;8.00;99.90;;;;;;6131352;29;20444;-67
2022/11/03 07:01:35;;;;;;;7.43;2.70;;;8.00;99.90;;;;;;6143476;29;20271;-67
2022/11/03 07:04:40;;;;;;;3.88;2.55;;;7.90;99.90;;;;;;6136617;29;20300;-68
2022/11/03 07:07:46;;;;;;;2.65;2.42;;;7.90;99.90;;;;;;6141993;29;20271;-67
2022/11/03 07:11:01;;;;;;;4.68;2.80;;;7.90;99.90;;;;;;6143316;29;20271;-67
2022/11/03 07:14:14;;;;;;;6.07;2.58;;;7.90;99.90;;;;;;6152435;29;20263;-67
2022/11/03 07:17:22;;;;;;;7.20;2.75;;;7.90;99.90;;;;;;6166979;29;20558;-66
2022/11/03 07:20:27;;;;;;;5.60;3.03;;;7.90;99.90;;;;;;6166661;29;20274;-66
2022/11/03 07:23:32;;;;;;;3.45;2.53;;;7.90;99.90;;;;;;6166832;29;20270;-67
2022/11/03 07:26:38;;;;;;;6.85;2.75;;;7.90;99.90;;;;;;6166368;29;20294;-67
2022/11/03 07:29:45;;;;;;;3.10;2.50;;;7.90;99.90;;;;;;6166839;29;20267;-67
2022/11/03 07:32:53;;;;;;;7.20;2.97;;;7.90;99.90;;;;;;6166841;29;20271;-66
2022/11/03 07:35:59;;;;;;;5.60;2.60;;;7.90;99.90;;;;;;6159170;29;20565;-66
2022/11/03 07:39:21;;;;;;;8.45;3.47;;;7.90;99.90;;;;;;6166480;29;20275;-66
2022/11/03 07:42:28;;;;;;;5.10;2.33;;;7.90;99.90;;;;;;6166443;29;20553;-67
2022/11/03 07:45:39;;;;;;;6.57;2.65;;;7.90;99.90;;;;;;6166355;29;20315;-68
2022/11/03 07:48:46;;;;;;;5.18;2.33;;;7.90;99.90;;;;;;6166307;29;20428;-68
2022/11/03 07:51:51;;;;;;;4.10;2.67;;;8.00;99.90;;;;;;6166317;29;20271;-67
2022/11/03 07:54:56;;;;;;;11.35;2.60;;;8.00;99.90;;;;;;6166519;29;20266;-67
2022/11/03 07:58:15;;;;;;;5.85;2.20;;;8.00;99.90;;;;;;6166411;29;20290;-68
2022/11/03 08:01:26;;;;;;;4.25;2.60;;;8.10;99.90;;;;;;6165735;29;20275;-67
2022/11/03 08:04:33;;;;;;;8.57;3.28;;;8.10;99.90;;;;;;6161476;28;20304;-69
2022/11/03 08:07:38;;;;;;;8.73;2.42;;;8.10;99.90;;;;;;6142311;29;20299;-67
2022/11/03 08:10:43;;;;;;;2.90;2.40;;;8.10;99.90;;;;;;6141956;29;20291;-67
2022/11/03 08:13:49;;;;;;;6.20;2.78;;;8.10;99.90;;;;;;6134477;29;20264;-67
2022/11/03 08:16:54;;;;;;;3.20;2.42;;;8.20;99.90;;;;;;6118457;29;20296;-67
2022/11/03 08:19:59;;;;;;;6.40;2.92;;;8.20;99.90;;;;;;6118329;29;20543;-68
2022/11/03 08:23:03;;;;;;;4.75;2.45;;;8.20;99.90;;;;;;6118207;29;20563;-67
2022/11/03 08:26:29;;;;;;;3.55;2.78;;;8.20;99.90;;;;;;6117710;29;20292;-67
2022/11/03 08:29:36;;;;;;;6.55;2.70;;;8.20;99.90;;;;;;6117808;29;20264;-67
2022/11/03 08:32:41;;;;;;;6.75;2.95;;;8.30;99.90;;;;;;6117950;29;20272;-67
2022/11/03 08:35:45;;;;;;;6.78;2.58;;;8.30;99.90;;;;;;6118015;29;20267;-67
2022/11/03 08:38:50;;;;;;;7.13;3.03;;;8.30;99.90;;;;;;6101026;29;20322;-67
2022/11/03 08:41:55;;;;;;;10.90;2.70;;;8.40;99.90;;;;;;6110244;29;20321;-67
2022/11/03 08:45:01;;;;;;;5.57;2.45;;;8.40;99.90;;;;;;6117812;29;20271;-67
2022/11/03 08:48:07;;;;;;;5.97;3.50;;;8.50;99.90;;;;;;6116886;29;20295;-69
2022/11/03 08:51:13;;;;;;;6.40;2.70;;;8.50;99.90;;;;;;6117681;29;20559;-67
2022/11/03 08:54:18;;;;;;;7.63;2.33;;;8.50;99.90;;;;;;6117594;29;20552;-67
2022/11/03 08:57:23;;;;;;;5.57;2.60;;;8.50;99.90;;;;;;6117876;29;20275;-66
2022/11/03 09:00:29;;;;;;;9.68;2.20;;;8.60;99.90;;;;;;6117038;29;20276;-67
2022/11/03 09:03:34;;;;;;;4.65;2.50;;;8.60;99.90;;;;;;6117412;29;20275;-68
2022/11/03 09:06:40;;;;;;;6.47;2.83;;;8.60;99.90;;;;;;6138033;29;20295;-67
2022/11/03 09:09:44;;;;;;;6.93;3.15;;;8.60;99.90;;;;;;6140649;29;20267;-68
2022/11/03 09:13:10;;;;;;;5.20;2.55;;;8.60;99.90;;;;;;6140287;29;20551;-67
2022/11/03 09:16:16;;;;;;;9.82;2.45;;;8.70;99.90;;;;;;6140933;29;20415;-67
2022/11/03 09:19:21;;;;;;;11.63;2.25;;;8.70;99.90;;;;;;6140379;29;20271;-67
2022/11/03 09:22:26;;;;;;;8.05;2.88;;;8.80;99.90;;;;;;6140439;29;20276;-67
2022/11/03 09:25:31;;;;;;;5.90;2.75;;;8.80;99.90;;;;;;6140474;29;20578;-67
2022/11/03 09:28:36;;;;;;;5.75;2.10;;;8.80;99.90;;;;;;6140495;29;20287;-67
2022/11/03 09:31:42;;;;;;;8.32;2.38;;;8.90;99.90;;;;;;6140586;29;20275;-68
2022/11/03 09:34:47;;;;;;;10.90;2.78;;;8.90;99.90;;;;;;6140535;29;20267;-66
2022/11/03 09:37:52;;;;;;;15.30;3.03;;;8.90;99.90;;;;;;6140572;29;20275;-66
2022/11/03 09:40:57;;;;;;;10.23;3.45;;;9.00;99.90;;;;;;6140195;29;20510;-67
2022/11/03 09:44:02;;;;;;;9.43;3.08;;;9.00;99.90;;;;;;6140269;29;20275;-67
2022/11/03 09:47:16;;;;;;;6.20;2.22;;;9.10;99.90;;;;;;6140244;29;20291;-67
2022/11/03 09:50:21;;;;;;;9.15;2.40;;;9.20;99.90;;;;;;6139678;29;20275;-67
2022/11/03 09:53:26;;;;;;;7.35;2.40;;;9.20;99.90;;;;;;6140427;29;20267;-67
2022/11/03 09:56:31;;;;;;;7.50;2.50;;;9.20;99.90;;;;;;6140300;29;20275;-66
2022/11/03 09:59:38;;;;;;;5.85;2.20;;;9.20;99.90;;;;;;6144877;29;20266;-66
2022/11/03 10:02:44;;;;;;;12.40;2.63;;;9.20;99.90;;;;;;6145318;29;20271;-67
2022/11/03 10:05:49;;;;;;;8.57;2.80;;;9.30;99.90;;;;;;6159715;29;20479;-67
2022/11/03 10:08:53;;;;;;;4.93;1.83;;;9.40;99.90;;;;;;6160797;29;20399;-66
2022/11/03 10:11:58;;;;;;;4.72;2.40;;;9.40;99.90;;;;;;6168495;29;20275;-66
2022/11/03 10:15:03;;;;;;;4.45;2.20;;;9.40;99.90;;;;;;6150956;29;20279;-66
2022/11/03 10:18:10;;;;;;;9.15;2.25;;;9.40;99.90;;;;;;6144676;29;20271;-67
2022/11/03 10:21:17;;;;;;;4.57;1.73;;;9.50;99.90;;;;;;6144471;29;20271;-66
2022/11/03 10:24:22;;;;;;;8.95;2.13;;;9.60;99.90;;;;;;6144036;29;20279;-66
2022/11/03 10:27:27;;;;;;;9.45;2.42;;;9.60;99.90;;;;;;6144359;29;20449;-67
2022/11/03 10:30:32;;;;;;;4.75;2.28;;;9.70;99.90;;;;;;6144388;29;20271;-68
2022/11/03 10:33:58;;;;;;;12.88;1.85;;;9.70;99.90;;;;;;6144557;29;20267;-66
2022/11/03 10:37:18;;;;;;;10.10;2.20;;;9.80;99.90;;;;;;6144275;29;20465;-66
2022/11/03 10:40:35;;;;;;;5.82;1.85;;;9.80;99.90;;;;;;6144267;29;20291;-66
2022/11/03 10:44:04;;;;;;;7.55;1.83;;;9.90;99.90;;;;;;6144408;29;20449;-66
2022/11/03 10:47:27;;;;;;;9.85;1.88;;;9.90;99.90;;;;;;6144338;29;20291;-66
2022/11/03 10:50:33;;;;;;;5.45;2.10;;;10.00;99.90;;;;;;6144137;29;20313;-66
2022/11/03 10:53:38;;;;;;;9.10;2.45;;;10.00;99.90;;;;;;6143836;29;20267;-67
2022/11/03 10:56:44;;;;;;;7.65;2.28;;;10.10;99.90;;;;;;6127365;29;20271;-68
2022/11/03 10:59:51;;;;;;;10.88;2.15;;;10.10;99.90;;;;;;6143677;29;20295;-67
2022/11/03 11:02:59;;;;;;;8.60;2.28;;;10.20;99.90;;;;;;6143523;29;20271;-67
2022/11/03 11:06:06;;;;;;;4.93;2.22;;;10.20;99.90;;;;;;6142911;29;20299;-67
2022/11/03 11:09:14;;;;;;;7.38;2.47;;;10.20;99.90;;;;;;6142872;29;20295;-68
2022/11/03 11:12:22;;;;;;;8.13;2.70;;;10.20;99.90;;;;;;6142884;29;20275;-68
2022/11/03 11:15:40;;;;;;;10.88;2.78;;;10.20;99.90;;;;;;6163702;29;20263;-68
2022/11/03 11:19:02;;;;;;;6.82;2.45;;;10.20;99.90;;;;;;6167096;29;20283;-68
2022/11/03 11:22:21;;;;;;;9.88;2.50;;;10.30;99.90;;;;;;6166882;29;20271;-67
2022/11/03 11:26:13;;;;;;;6.60;1.90;;;10.30;99.90;;;;;;6166814;29;20279;-67
2022/11/03 11:29:42;;;;;;;13.05;3.13;;;10.40;99.90;;;;;;6166652;29;20606;-67
2022/11/03 11:33:00;;;;;;;7.75;2.85;;;10.40;99.90;;;;;;6166920;29;20275;-66
2022/11/03 11:36:29;;;;;;;5.82;2.00;;;10.40;99.90;;;;;;6166675;29;20457;-67
2022/11/03 11:39:45;;;;;;;6.30;2.22;;;10.50;99.90;;;;;;6166267;29;20348;-68
2022/11/03 11:43:27;;;;;;;3.42;2.00;;;10.50;99.90;;;;;;6166920;29;20266;-67
2022/11/03 11:46:40;;;;;;;12.00;2.88;;;10.50;99.90;;;;;;6166117;29;20270;-66
2022/11/03 11:49:44;;;;;;;7.13;2.20;;;10.60;99.90;;;;;;6166218;29;20286;-67
2022/11/03 11:52:56;;;;;;;6.90;2.42;;;10.60;99.90;;;;;;6166005;29;20428;-67
2022/11/03 11:56:03;;;;;;;15.60;2.58;;;10.60;99.90;;;;;;6165838;29;20266;-66
2022/11/03 11:59:20;;;;;;;9.20;2.92;;;10.60;99.90;;;;;;6166042;29;20457;-68
2022/11/03 12:02:30;;;;;;;9.13;2.00;;;10.70;99.90;;;;;;6166175;29;20271;-66
2022/11/03 12:05:35;;;;;;;7.18;1.92;;;10.60;99.90;;;;;;6165537;29;20306;-66
2022/11/03 12:08:41;;;;;;;10.95;2.10;;;10.70;99.90;;;;;;6165950;29;20287;-67
2022/11/03 12:11:49;;;;;;;6.35;1.88;;;10.70;99.90;;;;;;6166226;29;20274;-66
2022/11/03 12:15:02;;;;;;;7.85;2.42;;;10.70;99.90;;;;;;6148949;29;20387;-68
2022/11/03 12:18:29;;;;;;;11.88;2.13;;;10.70;99.90;;;;;;6141957;29;20459;-67
2022/11/03 12:21:49;;;;;;;8.70;2.50;;;10.70;99.90;;;;;;6140847;29;20445;-68
2022/11/03 12:24:55;;;;;;;7.80;1.65;;;10.70;99.90;;;;;;6141755;29;20279;-66
2022/11/03 12:28:30;;;;;;;9.70;1.80;;;10.70;99.90;;;;;;6141350;29;20275;-67
2022/11/03 12:31:37;;;;;;;5.47;2.13;;;10.70;99.90;;;;;;6141738;29;20271;-67
2022/11/03 12:34:41;;;;;;;5.10;2.13;;;10.70;99.90;;;;;;6140996;29;20275;-66
2022/11/03 12:37:46;;;;;;;8.65;2.05;;;10.70;99.90;;;;;;6141378;29;20292;-66
2022/11/03 12:40:53;;;;;;;5.72;1.90;;;10.80;99.90;;;;;;6141457;29;20271;-67
2022/11/03 12:43:58;;;;;;;9.82;1.90;;;10.70;99.90;;;;;;6140921;29;20271;-66
2022/11/03 12:47:04;;;;;;;5.15;1.67;;;10.80;99.90;;;;;;6141138;29;20543;-67
2022/11/03 12:50:10;;;;;;;6.45;1.85;;;10.70;99.90;;;;;;6140892;29;20307;-67
2022/11/03 12:53:14;;;;;;;13.48;2.75;;;10.70;99.90;;;;;;6141168;29;20272;-67
2022/11/03 12:56:19;;;;;;;9.40;2.55;;;10.70;99.90;;;;;;6141202;29;20271;-67
2022/11/03 12:59:24;;;;;;;7.18;2.20;;;10.70;99.90;;;;;;6141030;29;20295;-66
2022/11/03 13:02:30;;;;;;;8.88;2.42;;;10.70;99.90;;;;;;6140726;29;20567;-67
2022/11/03 13:05:35;;;;;;;10.13;2.15;;;10.70;99.90;;;;;;6141000;29;20295;-66
2022/11/03 13:08:40;;;;;;;9.77;2.35;;;10.60;99.90;;;;;;6140532;29;20294;-66
2022/11/03 13:15:12;;;;;;;10.13;2.30;;;10.60;99.90;;;;;;6158377;29;20267;-66
2022/11/03 13:18:18;;;;;;;7.45;2.00;;;10.60;99.90;;;;;;6164198;29;20275;-67
2022/11/03 13:21:23;;;;;;;9.98;2.00;;;10.60;99.90;;;;;;6163967;29;20270;-67
2022/11/03 13:24:28;;;;;;;6.50;2.15;;;10.50;99.90;;;;;;6164225;29;20542;-66
2022/11/03 13:27:32;;;;;;;8.20;1.90;;;10.60;99.90;;;;;;6164429;29;20269;-66
2022/11/03 13:30:39;;;;;;;9.25;2.63;;;10.60;99.90;;;;;;6164320;29;20295;-68
2022/11/03 13:33:45;;;;;;;8.75;2.25;;;10.60;99.90;;;;;;6164225;28;20270;-68
2022/11/03 13:36:49;;;;;;;6.07;1.88;;;10.60;99.90;;;;;;6164345;29;20271;-67
2022/11/03 13:39:54;;;;;;;6.38;1.92;;;10.60;99.90;;;;;;6164012;29;20306;-66
2022/11/03 13:42:59;;;;;;;8.13;2.08;;;10.60;99.90;;;;;;6164119;29;20267;-66
2022/11/03 13:46:04;;;;;;;14.13;2.42;;;10.60;99.90;;;;;;6164043;29;20558;-66
2022/11/03 13:49:10;;;;;;;10.18;1.85;;;10.60;99.90;;;;;;6163474;29;20290;-66
2022/11/03 13:52:35;;;;;;;7.93;2.80;;;10.50;99.90;;;;;;6163881;29;20436;-66
2022/11/03 13:55:40;;;;;;;6.03;2.10;;;10.50;99.90;;;;;;6164013;29;20266;-66
2022/11/03 13:58:50;;;;;;;8.52;2.30;;;10.50;99.90;;;;;;6163788;29;20472;-67
2022/11/03 14:02:15;;;;;;;6.88;2.13;;;10.50;99.90;;;;;;6163835;29;20554;-67
2022/11/03 14:05:41;;;;;;;11.35;2.50;;;10.50;99.90;;;;;;6163595;29;20490;-67
2022/11/03 14:08:46;;;;;;;11.68;2.33;;;10.40;99.90;;;;;;6163630;29;20275;-66
2022/11/03 14:15:13;;;;;;;8.32;2.15;;;10.40;99.90;;;;;;6144776;29;20567;-67
2022/11/03 14:18:19;;;;;;;6.68;2.20;;;10.40;99.90;;;;;;6139810;29;20276;-67
2022/11/03 14:21:26;;;;;;;7.53;2.15;;;10.30;99.90;;;;;;6139428;29;20275;-67
2022/11/03 14:24:30;;;;;;;8.60;1.88;;;10.30;99.90;;;;;;6139881;29;20271;-67
2022/11/03 14:27:35;;;;;;;10.05;2.42;;;10.40;99.90;;;;;;6139265;29;20271;-67
2022/11/03 14:30:40;;;;;;;12.32;2.83;;;10.30;99.90;;;;;;6139773;29;20291;-68
2022/11/03 14:33:45;;;;;;;6.95;2.22;;;10.30;99.90;;;;;;6139585;29;20517;-68
2022/11/03 14:36:51;;;;;;;13.07;2.50;;;10.30;99.90;;;;;;6139225;29;20271;-67
2022/11/03 14:39:55;;;;;;;11.73;2.65;;;10.30;99.90;;;;;;6139253;29;20457;-66
2022/11/03 14:42:59;;;;;;;10.80;2.60;;;10.20;99.90;;;;;;6139259;29;20274;-66
2022/11/03 14:46:05;;;;;;;12.45;2.40;;;10.20;99.90;;;;;;6142762;29;20270;-66
2022/11/03 14:49:11;;;;;;;7.85;2.78;;;10.20;99.90;;;;;;6144148;29;20275;-67
2022/11/03 14:52:18;;;;;;;14.73;2.85;;;10.20;99.90;;;;;;6143822;29;20410;-67
2022/11/03 14:55:23;;;;;;;15.85;2.50;;;10.20;99.90;;;;;;6143517;29;20271;-67
2022/11/03 14:58:28;;;;;;;17.23;3.10;;;10.20;99.90;;;;;;6143386;29;20275;-67
2022/11/03 15:01:35;;;;;;;11.57;2.28;;;10.20;99.90;;;;;;6143779;29;20275;-67
2022/11/03 15:04:40;;;;;;;5.40;2.42;;;10.20;99.90;;;;;;6142962;29;20303;-68
2022/11/03 15:07:47;;;;;;;6.43;2.75;;;10.10;99.90;;;;;;6143706;29;20271;-67
2022/11/03 15:10:52;;;;;;;10.40;2.67;;;10.10;99.90;;;;;;6143204;29;20326;-67
2022/11/03 15:13:57;;;;;;;9.02;2.38;;;10.10;99.90;;;;;;6151761;29;20438;-67
2022/11/03 15:17:02;;;;;;;10.80;2.17;;;10.10;99.90;;;;;;6167088;29;20274;-67
2022/11/03 15:20:09;;;;;;;8.95;2.40;;;10.10;99.90;;;;;;6167118;29;20381;-67
2022/11/03 15:23:15;;;;;;;6.80;2.25;;;10.10;99.90;;;;;;6166634;29;20274;-66
2022/11/03 15:26:40;;;;;;;12.15;3.10;;;10.00;99.90;;;;;;6166652;29;20306;-67
2022/11/03 15:29:45;;;;;;;10.85;3.10;;;10.00;99.90;;;;;;6166735;29;20267;-66
2022/11/03 15:32:50;;;;;;;14.65;2.70;;;10.00;99.90;;;;;;6166342;29;20267;-67
2022/11/03 15:35:54;;;;;;;7.32;2.85;;;10.00;99.90;;;;;;6166278;29;20406;-67
2022/11/03 15:39:01;;;;;;;7.80;2.90;;;10.00;99.90;;;;;;6166507;29;20271;-68
2022/11/03 15:42:06;;;;;;;9.48;2.65;;;9.90;99.90;;;;;;6166095;29;20275;-66
2022/11/03 15:45:14;;;;;;;16.98;3.92;;;9.90;99.90;;;;;;6166731;29;20270;-66
2022/11/03 15:48:19;;;;;;;12.65;3.30;;;9.80;99.90;;;;;;6166448;29;20550;-67
2022/11/03 15:51:24;;;;;;;13.82;3.95;;;9.90;99.90;;;;;;6166504;29;20290;-66
2022/11/03 15:54:30;;;;;;;14.48;3.30;;;9.90;99.90;;;;;;6166611;29;20271;-68
2022/11/03 15:57:35;;;;;;;9.93;3.90;;;9.90;99.90;;;;;;6166174;28;20270;-66
2022/11/03 16:00:40;;;;;;;10.77;3.47;;;9.90;99.90;;;;;;6166321;29;20275;-67
2022/11/03 16:03:45;;;;;;;12.30;4.25;;;9.90;99.90;;;;;;6166222;29;20270;-68
2022/11/03 16:06:50;;;;;;;14.73;4.57;;;9.80;99.90;;;;;;6128501;29;20295;-68
2022/11/03 16:10:14;;;;;;;11.40;4.63;;;9.80;99.90;;;;;;6141901;29;20276;-67
2022/11/03 16:13:19;;;;;;;9.20;4.28;;;9.80;99.90;;;;;;6138224;29;20566;-68
2022/11/03 16:16:23;;;;;;;11.57;4.60;;;9.90;99.90;;;;;;6118714;29;20346;-67
2022/11/03 16:19:29;;;;;;;8.50;4.15;;;9.90;99.90;;;;;;6118290;29;20273;-66
2022/11/03 16:22:34;;;;;;;9.95;3.85;;;9.90;99.90;;;;;;6118548;29;20280;-67
2022/11/03 16:25:40;;;;;;;11.65;4.20;;;9.90;99.90;;;;;;6117872;29;20272;-67
2022/11/03 16:28:45;;;;;;;6.45;3.88;;;9.90;99.90;;;;;;6117936;29;20275;-67
2022/11/03 16:31:49;;;;;;;14.10;4.65;;;9.90;99.90;;;;;;6117808;29;20481;-67
2022/11/03 16:34:54;;;;;;;10.25;4.13;;;10.00;99.90;;;;;;6117728;29;20277;-66
2022/11/03 16:37:59;;;;;;;14.75;4.50;;;9.90;99.90;;;;;;6117556;29;20268;-66
2022/11/03 16:41:05;;;;;;;11.13;4.40;;;10.00;99.90;;;;;;6117936;29;20469;-67
2022/11/03 16:44:11;;;;;;;15.88;6.00;;;9.90;99.90;;;;;;6118166;29;20431;-66
2022/11/03 16:47:16;;;;;;;10.25;4.22;;;9.90;99.90;;;;;;6117665;29;20275;-66
2022/11/03 16:50:21;;;;;;;12.07;4.07;;;9.90;99.90;;;;;;6117542;29;20279;-67
2022/11/03 16:53:26;;;;;;;11.95;4.55;;;10.00;99.90;;;;;;6117125;29;20281;-66
2022/11/03 16:56:33;;;;;;;13.23;4.10;;;10.00;99.90;;;;;;6117978;29;20275;-66
2022/11/03 16:59:38;;;;;;;13.68;4.43;;;10.00;99.90;;;;;;6117654;29;20272;-66
2022/11/03 17:02:43;;;;;;;11.20;4.38;;;10.00;99.90;;;;;;6117608;29;20271;-66